Time;durP1;ratioP1;P1;durP2;ratioP2;P2;SDS_P1;SDS_P2;PMS_P1;PMS_P2;Temp;Humidity;BMP_temperature;BMP_pressure;BME280_temperature;BME280_humidity;BME280_pressure;Samples;Min_cycle;Max_cycle;Signal;HPM_P1;HPM_P2
2020/12/16 00:00:23;;;;;;;;;;;;;;;7.92;77.95;100362.09;5032991;28;19925;-70
2020/12/16 00:02:52;;;;;;;;;;;;;;;7.90;78.02;100366.88;5015309;28;20012;-70
2020/12/16 00:05:18;;;;;;;;;;;;;;;7.86;78.04;100369.13;5001401;28;19964;-70
2020/12/16 00:07:45;;;;;;;;;;;;;;;7.88;78.19;100367.06;5021048;28;19980;-70
2020/12/16 00:10:11;;;;;;;;;;;;;;;7.89;78.14;100368.75;5031560;28;20353;-70
2020/12/16 00:12:40;;;;;;;;;;;;;;;7.85;78.35;100364.72;5028014;28;20024;-70
2020/12/16 00:15:07;;;;;;;;;;;;;;;7.82;78.54;100378.69;5045714;28;19929;-70
2020/12/16 00:17:34;;;;;;;;;;;;;;;7.83;78.51;100380.38;5039933;28;19932;-70
2020/12/16 00:20:01;;;;;;;;;;;;;;;7.76;78.96;100387.59;5002493;28;19930;-70
2020/12/16 00:22:35;;;;;;;;;;;;;;;7.80;78.77;100391.59;5031918;28;19964;-70
2020/12/16 00:25:02;;;;;;;;;;;;;;;7.90;78.14;100375.84;5031400;28;19972;-69
2020/12/16 00:27:29;;;;;;;;;;;;;;;8.00;77.82;100379.03;4999611;28;20611;-70
2020/12/16 00:29:55;;;;;;;;;;;;;;;8.04;77.60;100384.94;5015229;28;19957;-70
2020/12/16 00:32:21;;;;;;;;;;;;;;;8.02;77.75;100382.41;5015363;28;20055;-69
2020/12/16 00:34:47;;;;;;;;;;;;;;;8.02;77.61;100387.84;5031501;28;19926;-69
2020/12/16 00:37:14;;;;;;;;;;;;;;;8.00;78.05;100379.03;5031537;28;19932;-70
2020/12/16 00:39:40;;;;;;;;;;;;;;;8.02;77.79;100384.28;5015150;28;20458;-70
2020/12/16 00:42:06;;;;;;;;;;;;;;;8.06;77.59;100389.13;5031480;28;19960;-69
2020/12/16 00:44:33;;;;;;;;;;;;;;;8.07;77.88;100390.81;5015864;28;19932;-70
2020/12/16 00:46:59;;;;;;;;;;;;;;;8.02;78.11;100393.25;5014633;28;20124;-70
2020/12/16 00:49:26;;;;;;;;;;;;;;;8.04;77.82;100396.63;5015325;28;19979;-69
2020/12/16 00:51:53;;;;;;;;;;;;;;;8.01;78.09;100397.00;5001012;28;20008;-70
2020/12/16 00:54:19;;;;;;;;;;;;;;;7.93;78.69;100399.03;5020723;28;19925;-70
2020/12/16 00:56:46;;;;;;;;;;;;;;;7.87;78.88;100400.66;5019157;28;19929;-70
2020/12/16 00:59:12;;;;;;;;;;;;;;;7.84;78.65;100405.63;5019405;28;20028;-70
2020/12/16 01:01:40;;;;;;;;;;;;;;;7.82;78.65;100408.53;5019131;28;20442;-69
2020/12/16 01:04:07;;;;;;;;;;;;;;;7.79;78.85;100408.91;5018765;28;19944;-69
2020/12/16 01:06:36;;;;;;;;;;;;;;;7.71;79.08;100403.59;5019054;28;19933;-69
2020/12/16 01:09:05;;;;;;;;;;;;;;;7.65;79.48;100412.50;5019159;28;19925;-70
2020/12/16 01:11:34;;;;;;;;;;;;;;;7.63;79.76;100414.56;5002967;28;19925;-70
2020/12/16 01:14:00;;;;;;;;;;;;;;;7.62;79.55;100415.63;5018497;28;19939;-69
2020/12/16 01:16:32;;;;;;;;;;;;;;;7.57;79.67;100415.38;5035218;28;19925;-69
2020/12/16 01:18:58;;;;;;;;;;;;;;;7.48;80.07;100411.06;5018409;28;20308;-70
2020/12/16 01:21:33;;;;;;;;;;;;;;;7.38;80.44;100409.50;5019512;28;19972;-69
2020/12/16 01:23:59;;;;;;;;;;;;;;;7.30;80.87;100415.03;5018211;28;19996;-69
2020/12/16 01:26:25;;;;;;;;;;;;;;;7.32;80.95;100420.25;5034675;28;19975;-69
2020/12/16 01:28:59;;;;;;;;;;;;;;;7.30;81.18;100428.59;5035337;28;19925;-69
2020/12/16 01:31:25;;;;;;;;;;;;;;;7.32;81.00;100423.81;5004432;28;20388;-69
2020/12/16 01:33:52;;;;;;;;;;;;;;;7.29;81.39;100436.91;5002569;28;20040;-70
2020/12/16 01:36:41;;;;;;;;;;;;;;;7.26;81.23;100440.84;5021913;28;20401;-69
2020/12/16 01:39:09;;;;;;;;;;;;;;;7.14;81.88;100436.94;5035527;28;19991;-69
2020/12/16 01:41:38;;;;;;;;;;;;;;;7.30;81.27;100436.72;5019497;28;19971;-69
2020/12/16 01:44:22;;;;;;;;;;;;;;;7.36;81.12;100440.53;5018893;28;19971;-69
2020/12/16 01:46:53;;;;;;;;;;;;;;;7.35;81.03;100445.13;5002738;28;20446;-69
2020/12/16 01:49:25;;;;;;;;;;;;;;;7.39;81.03;100453.72;4999367;28;19991;-69
2020/12/16 01:51:53;;;;;;;;;;;;;;;7.42;80.67;100456.06;5001965;28;19932;-69
2020/12/16 01:54:21;;;;;;;;;;;;;;;7.48;80.69;100452.59;5036487;28;19924;-69
2020/12/16 01:56:53;;;;;;;;;;;;;;;7.50;80.31;100449.69;5019479;28;19925;-69
2020/12/16 01:59:36;;;;;;;;;;;;;;;7.58;79.99;100450.44;5004688;28;19929;-69
2020/12/16 02:02:04;;;;;;;;;;;;;;;7.58;79.77;100447.72;5002651;28;19925;-69
2020/12/16 02:04:35;;;;;;;;;;;;;;;7.59;79.88;100440.41;5036404;28;19937;-69
2020/12/16 02:07:06;;;;;;;;;;;;;;;7.59;79.94;100457.53;5003036;28;19925;-69
2020/12/16 02:09:46;;;;;;;;;;;;;;;7.62;79.90;100456.31;5020001;28;20387;-70
2020/12/16 02:12:16;;;;;;;;;;;;;;;7.63;79.93;100447.94;5009756;28;19980;-69
2020/12/16 02:14:42;;;;;;;;;;;;;;;7.65;79.75;100447.75;5010027;28;19929;-69
2020/12/16 02:17:10;;;;;;;;;;;;;;;7.63;79.79;100447.94;4998736;28;19952;-69
2020/12/16 02:19:43;;;;;;;;;;;;;;;7.64;79.89;100462.34;4991628;28;19925;-69
2020/12/16 02:22:13;;;;;;;;;;;;;;;7.65;79.89;100466.75;4985471;28;20036;-69
2020/12/16 02:24:41;;;;;;;;;;;;;;;7.64;80.32;100465.06;5018494;28;20428;-69
2020/12/16 02:27:10;;;;;;;;;;;;;;;7.65;79.80;100474.88;5018012;28;20012;-69
2020/12/16 02:29:37;;;;;;;;;;;;;;;7.65;79.84;100467.59;5001705;28;19929;-69
2020/12/16 02:32:12;;;;;;;;;;;;;;;7.66;79.77;100479.28;5033575;28;19947;-69
2020/12/16 02:34:38;;;;;;;;;;;;;;;7.68;79.94;100477.22;5017776;28;20382;-69
2020/12/16 02:37:05;;;;;;;;;;;;;;;7.67;79.96;100480.97;5017161;28;20366;-69
2020/12/16 02:39:42;;;;;;;;;;;;;;;7.69;79.86;100481.63;5002833;28;19964;-69
2020/12/16 02:42:20;;;;;;;;;;;;;;;7.70;79.68;100476.00;5002591;28;20036;-69
2020/12/16 02:44:47;;;;;;;;;;;;;;;7.71;79.66;100484.97;5001434;28;20426;-69
2020/12/16 02:47:21;;;;;;;;;;;;;;;7.71;79.78;100493.13;5001418;28;19932;-69
2020/12/16 02:49:48;;;;;;;;;;;;;;;7.73;79.46;100496.47;5001056;28;19956;-69
2020/12/16 02:52:14;;;;;;;;;;;;;;;7.73;79.51;100496.47;5016705;28;19948;-69
2020/12/16 02:54:41;;;;;;;;;;;;;;;7.71;79.82;100493.13;5016626;28;19936;-69
2020/12/16 02:57:23;;;;;;;;;;;;;;;7.70;79.92;100496.84;5002461;28;19948;-69
2020/12/16 02:59:55;;;;;;;;;;;;;;;7.71;79.68;100499.38;5017715;28;19925;-69
2020/12/16 03:02:41;;;;;;;;;;;;;;;7.70;79.81;100500.41;5012293;28;19961;-69
2020/12/16 03:05:25;;;;;;;;;;;;;;;7.72;79.89;100494.81;5035409;28;19930;-69
2020/12/16 03:07:52;;;;;;;;;;;;;;;7.74;79.46;100503.59;5000073;28;19971;-69
2020/12/16 03:10:18;;;;;;;;;;;;;;;7.74;79.50;100498.16;5016358;28;20362;-69
2020/12/16 03:12:45;;;;;;;;;;;;;;;7.73;79.83;100501.91;5015658;28;19961;-69
2020/12/16 03:15:11;;;;;;;;;;;;;;;7.73;79.71;100491.91;5034912;28;19932;-69
2020/12/16 03:17:37;;;;;;;;;;;;;;;7.77;79.86;100496.94;5034986;28;20016;-69
2020/12/16 03:20:05;;;;;;;;;;;;;;;7.79;79.49;100506.56;5033590;28;19936;-69
2020/12/16 03:22:33;;;;;;;;;;;;;;;7.84;79.47;100508.72;5016652;28;20310;-69
2020/12/16 03:25:25;;;;;;;;;;;;;;;7.85;79.20;100513.97;5027256;28;19972;-69
2020/12/16 03:28:18;;;;;;;;;;;;;;;7.86;79.26;100507.50;5025868;28;19939;-69
2020/12/16 03:30:59;;;;;;;;;;;;;;;7.85;79.18;100504.97;5049203;28;20038;-69
2020/12/16 03:33:45;;;;;;;;;;;;;;;7.72;79.71;100498.34;5018389;28;19935;-69
2020/12/16 03:36:34;;;;;;;;;;;;;;;7.80;79.44;100507.41;5019159;28;19979;-69
2020/12/16 03:39:03;;;;;;;;;;;;;;;7.86;79.38;100507.50;5016386;28;19929;-69
2020/12/16 03:41:30;;;;;;;;;;;;;;;7.83;79.62;100507.88;5032150;28;19948;-69
2020/12/16 03:43:59;;;;;;;;;;;;;;;7.82;79.42;100503.47;5031437;28;19925;-69
2020/12/16 03:46:27;;;;;;;;;;;;;;;7.77;79.78;100505.09;5032628;28;19925;-69
2020/12/16 03:48:54;;;;;;;;;;;;;;;7.76;80.13;100509.66;5015740;28;20261;-69
2020/12/16 03:51:22;;;;;;;;;;;;;;;7.64;80.35;100514.72;5016522;28;19929;-69
2020/12/16 03:53:55;;;;;;;;;;;;;;;7.58;81.24;100509.25;5032677;28;19925;-69
2020/12/16 03:56:48;;;;;;;;;;;;;;;7.55;81.21;100515.06;5019316;28;21470;-69
2020/12/16 03:59:32;;;;;;;;;;;;;;;7.80;80.01;100520.97;5018603;28;20024;-69
2020/12/16 04:02:19;;;;;;;;;;;;;;;7.96;78.81;100518.91;5017793;28;19925;-69
2020/12/16 04:05:00;;;;;;;;;;;;;;;7.95;78.97;100513.66;5018154;23;20011;-72
2020/12/16 04:07:28;;;;;;;;;;;;;;;7.85;79.30;100515.81;5002259;28;20303;-70
2020/12/16 04:10:07;;;;;;;;;;;;;;;7.84;79.47;100520.41;5015079;28;19925;-71
2020/12/16 04:12:33;;;;;;;;;;;;;;;7.89;79.31;100517.97;5013594;28;20395;-71
2020/12/16 04:15:00;;;;;;;;;;;;;;;7.81;79.55;100520.78;5031193;28;20469;-71
2020/12/16 04:17:26;;;;;;;;;;;;;;;7.71;80.16;100528.38;5047842;28;19933;-71
2020/12/16 04:20:07;;;;;;;;;;;;;;;7.62;80.28;100534.97;5049135;28;19925;-71
2020/12/16 04:22:40;;;;;;;;;;;;;;;7.62;80.66;100543.09;5013151;28;19925;-71
2020/12/16 04:25:07;;;;;;;;;;;;;;;7.74;80.37;100541.56;5006184;28;19925;-71
2020/12/16 04:27:37;;;;;;;;;;;;;;;7.86;79.65;100544.66;5019348;28;19929;-71
2020/12/16 04:30:04;;;;;;;;;;;;;;;8.01;78.88;100537.28;4995083;28;19926;-70
2020/12/16 04:32:38;;;;;;;;;;;;;;;8.03;78.79;100538.78;5010660;28;19925;-70
2020/12/16 04:35:06;;;;;;;;;;;;;;;8.07;78.56;100545.50;4998875;28;19933;-70
2020/12/16 04:37:33;;;;;;;;;;;;;;;7.92;79.36;100547.44;5000892;28;20016;-71
2020/12/16 04:40:01;;;;;;;;;;;;;;;8.08;78.37;100544.47;5015449;28;19929;-71
2020/12/16 04:42:29;;;;;;;;;;;;;;;8.12;78.12;100539.50;5010885;28;19964;-71
2020/12/16 04:44:56;;;;;;;;;;;;;;;8.08;78.24;100543.63;5017071;28;19925;-71
2020/12/16 04:47:27;;;;;;;;;;;;;;;8.06;78.46;100545.69;5002654;28;19933;-71
2020/12/16 04:50:05;;;;;;;;;;;;;;;7.99;78.88;100552.91;5033779;28;20395;-71
2020/12/16 04:52:43;;;;;;;;;;;;;;;7.81;80.13;100558.78;5008134;28;19975;-71
2020/12/16 04:55:23;;;;;;;;;;;;;;;7.77;80.64;100562.88;5018101;28;20006;-71
2020/12/16 04:58:08;;;;;;;;;;;;;;;7.83;80.25;100562.13;5031919;28;19929;-71
2020/12/16 05:00:36;;;;;;;;;;;;;;;7.83;79.93;100566.72;5001801;28;20375;-70
2020/12/16 05:03:28;;;;;;;;;;;;;;;7.78;80.14;100578.13;5019531;28;19935;-70
2020/12/16 05:06:01;;;;;;;;;;;;;;;7.81;79.92;100575.06;5019529;28;19925;-70
2020/12/16 05:08:28;;;;;;;;;;;;;;;7.88;80.05;100575.97;4998580;28;19929;-70
2020/12/16 05:10:55;;;;;;;;;;;;;;;7.83;80.31;100583.00;5029320;28;20380;-70
2020/12/16 05:13:21;;;;;;;;;;;;;;;7.94;80.08;100577.09;5048216;28;19929;-70
2020/12/16 05:15:48;;;;;;;;;;;;;;;8.13;78.29;100575.63;5039613;28;20386;-70
2020/12/16 05:18:16;;;;;;;;;;;;;;;8.14;78.12;100580.03;5016933;28;20399;-70
2020/12/16 05:20:43;;;;;;;;;;;;;;;8.12;78.03;100582.94;5018207;28;20563;-70
2020/12/16 05:23:10;;;;;;;;;;;;;;;8.10;78.24;100581.44;5017762;28;19960;-70
2020/12/16 05:25:36;;;;;;;;;;;;;;;7.91;79.50;100577.47;5010704;28;19936;-70
2020/12/16 05:28:03;;;;;;;;;;;;;;;7.91;80.20;100581.03;5014470;28;19932;-70
2020/12/16 05:30:30;;;;;;;;;;;;;;;7.96;79.31;100583.19;5030965;28;20403;-70
2020/12/16 05:32:59;;;;;;;;;;;;;;;8.12;78.14;100587.53;5027116;28;20347;-70
2020/12/16 05:35:27;;;;;;;;;;;;;;;8.10;78.22;100584.16;5018737;28;19929;-70
2020/12/16 05:38:00;;;;;;;;;;;;;;;8.05;78.28;100584.72;5015882;28;19983;-70
2020/12/16 05:40:27;;;;;;;;;;;;;;;8.04;78.26;100589.31;5015985;28;19979;-70
2020/12/16 05:42:54;;;;;;;;;;;;;;;8.02;78.18;100587.81;5026987;28;19926;-70
2020/12/16 05:45:21;;;;;;;;;;;;;;;8.01;78.49;100578.00;5010305;28;20008;-70
2020/12/16 05:48:06;;;;;;;;;;;;;;;7.90;79.00;100587.50;5016232;28;20347;-70
2020/12/16 05:50:32;;;;;;;;;;;;;;;7.71;80.63;100590.78;5032383;28;20399;-70
2020/12/16 05:53:09;;;;;;;;;;;;;;;7.68;80.72;100585.72;5016226;28;19929;-70
2020/12/16 05:55:52;;;;;;;;;;;;;;;7.66;80.73;100593.19;5029569;28;20366;-70
2020/12/16 05:58:19;;;;;;;;;;;;;;;7.78;79.71;100588.16;4993416;28;19937;-70
2020/12/16 06:01:02;;;;;;;;;;;;;;;7.71;80.21;100590.78;5011417;28;19975;-70
2020/12/16 06:03:30;;;;;;;;;;;;;;;7.86;79.21;100596.19;5032396;28;19925;-70
2020/12/16 06:05:57;;;;;;;;;;;;;;;7.67;79.84;100590.31;5032431;28;19932;-70
2020/12/16 06:08:24;;;;;;;;;;;;;;;7.81;79.56;100599.47;5015728;28;20493;-70
2020/12/16 06:10:50;;;;;;;;;;;;;;;7.85;79.50;100597.22;5027788;28;20357;-70
2020/12/16 06:13:17;;;;;;;;;;;;;;;7.86;79.34;100594.31;5000355;28;20025;-70
2020/12/16 06:15:46;;;;;;;;;;;;;;;7.88;79.09;100603.13;5032895;28;19925;-70
2020/12/16 06:18:14;;;;;;;;;;;;;;;7.87;79.05;100596.00;4995998;28;19926;-70
2020/12/16 06:20:40;;;;;;;;;;;;;;;7.89;79.33;100609.38;5031692;28;20004;-70
2020/12/16 06:23:08;;;;;;;;;;;;;;;7.84;79.86;100609.94;5014562;28;20196;-70
2020/12/16 06:25:34;;;;;;;;;;;;;;;7.85;79.28;100613.50;5017035;28;19925;-70
2020/12/16 06:28:00;;;;;;;;;;;;;;;7.81;79.24;100613.03;5009116;28;19933;-70
2020/12/16 06:30:30;;;;;;;;;;;;;;;7.79;79.50;100628.66;5030270;28;20338;-70
2020/12/16 06:33:03;;;;;;;;;;;;;;;7.71;79.94;100626.88;5028000;28;19925;-70
2020/12/16 06:35:30;;;;;;;;;;;;;;;7.84;79.03;100633.53;5029634;28;19983;-69
2020/12/16 06:38:15;;;;;;;;;;;;;;;7.69;79.61;100641.66;5029217;28;19931;-70
2020/12/16 06:40:46;;;;;;;;;;;;;;;7.65;79.94;100646.59;5029887;28;19939;-70
2020/12/16 06:43:31;;;;;;;;;;;;;;;7.79;79.65;100644.09;5013395;28;20389;-70
2020/12/16 06:45:58;;;;;;;;;;;;;;;7.96;78.44;100649.16;5013577;28;19975;-70
2020/12/16 06:48:34;;;;;;;;;;;;;;;8.00;78.01;100650.44;5029569;28;19925;-70
2020/12/16 06:51:36;;;;;;;;;;;;;;;7.95;78.63;100652.91;5031691;28;19925;-70
2020/12/16 06:54:06;;;;;;;;;;;;;;;7.96;78.53;100657.28;4979447;28;19925;-70
2020/12/16 06:56:38;;;;;;;;;;;;;;;7.81;79.52;100663.75;5031332;28;19929;-70
2020/12/16 06:59:04;;;;;;;;;;;;;;;7.63;80.39;100669.53;5030813;28;19932;-70
2020/12/16 07:01:31;;;;;;;;;;;;;;;7.56;80.71;100666.72;5014667;28;19932;-70
2020/12/16 07:03:57;;;;;;;;;;;;;;;7.48;81.24;100666.81;5014389;28;20007;-70
2020/12/16 07:06:29;;;;;;;;;;;;;;;7.47;81.94;100669.69;5031613;28;19932;-70
2020/12/16 07:09:14;;;;;;;;;;;;;;;7.50;81.49;100669.34;5031103;28;19929;-70
2020/12/16 07:11:42;;;;;;;;;;;;;;;7.65;80.83;100665.59;5031293;28;19932;-70
2020/12/16 07:14:09;;;;;;;;;;;;;;;7.65;80.67;100664.75;5015128;28;19951;-69
2020/12/16 07:16:35;;;;;;;;;;;;;;;7.68;80.67;100673.34;5031140;28;19925;-70
2020/12/16 07:19:01;;;;;;;;;;;;;;;7.65;80.99;100673.72;5033251;28;19932;-70
2020/12/16 07:21:29;;;;;;;;;;;;;;;7.57;81.38;100670.28;5031673;28;19964;-69
2020/12/16 07:23:56;;;;;;;;;;;;;;;7.50;81.42;100677.47;5032084;28;19925;-69
2020/12/16 07:26:32;;;;;;;;;;;;;;;7.50;81.53;100674.75;5030872;28;20354;-69
2020/12/16 07:28:59;;;;;;;;;;;;;;;7.48;81.74;100680.38;5020129;28;19929;-69
2020/12/16 07:31:26;;;;;;;;;;;;;;;7.46;81.85;100684.28;5028578;28;19925;-70
2020/12/16 07:33:52;;;;;;;;;;;;;;;7.57;81.48;100681.13;5030807;28;19932;-69
2020/12/16 07:36:19;;;;;;;;;;;;;;;7.48;81.68;100679.53;5030439;28;20306;-70
2020/12/16 07:38:46;;;;;;;;;;;;;;;7.45;82.24;100677.19;5031573;28;19925;-70
2020/12/16 07:41:12;;;;;;;;;;;;;;;7.53;81.95;100679.81;5031654;28;20395;-69
2020/12/16 07:43:39;;;;;;;;;;;;;;;7.44;81.83;100670.06;5022863;28;20447;-69
2020/12/16 07:46:17;;;;;;;;;;;;;;;7.53;81.60;100674.38;5008919;28;20380;-70
2020/12/16 07:48:44;;;;;;;;;;;;;;;7.58;81.56;100671.97;5030102;28;19925;-70
2020/12/16 07:51:10;;;;;;;;;;;;;;;7.59;81.44;100668.22;5001149;28;19925;-70
2020/12/16 07:53:42;;;;;;;;;;;;;;;7.64;80.98;100676.63;5020896;28;19990;-70
2020/12/16 07:56:09;;;;;;;;;;;;;;;7.92;79.59;100666.00;5028017;28;20441;-70
2020/12/16 07:58:35;;;;;;;;;;;;;;;7.91;79.19;100677.88;5027689;28;19925;-70
2020/12/16 08:01:11;;;;;;;;;;;;;;;7.75;80.16;100668.03;5024555;28;19925;-70
2020/12/16 08:03:38;;;;;;;;;;;;;;;7.72;80.64;100673.84;5011215;28;19964;-70
2020/12/16 08:06:04;;;;;;;;;;;;;;;7.68;80.88;100673.34;5028188;28;20232;-70
2020/12/16 08:08:31;;;;;;;;;;;;;;;7.69;80.78;100675.03;5028777;28;19932;-70
2020/12/16 08:10:57;;;;;;;;;;;;;;;7.75;80.48;100673.47;5028630;28;19925;-70
2020/12/16 08:13:24;;;;;;;;;;;;;;;7.90;79.84;100676.19;5029083;28;19926;-70
2020/12/16 08:15:51;;;;;;;;;;;;;;;8.00;79.25;100668.59;5013502;28;19925;-70
2020/12/16 08:18:20;;;;;;;;;;;;;;;8.14;78.83;100675.88;5012725;28;19925;-70
2020/12/16 08:20:46;;;;;;;;;;;;;;;8.12;78.84;100674.38;5029874;28;20399;-70
2020/12/16 08:23:13;;;;;;;;;;;;;;;8.08;79.07;100679.34;5006835;28;19925;-69
2020/12/16 08:25:42;;;;;;;;;;;;;;;8.22;78.50;100677.66;5016498;28;20470;-70
2020/12/16 08:28:09;;;;;;;;;;;;;;;8.29;78.04;100673.16;5028490;28;19932;-69
2020/12/16 08:30:38;;;;;;;;;;;;;;;8.54;77.08;100669.09;5027745;28;19925;-70
2020/12/16 08:33:08;;;;;;;;;;;;;;;8.65;76.70;100676.75;5029599;28;20490;-70
2020/12/16 08:35:37;;;;;;;;;;;;;;;8.80;76.25;100667.69;5014157;28;19925;-70
2020/12/16 08:38:07;;;;;;;;;;;;;;;9.03;74.89;100671.06;5027542;28;20453;-70
2020/12/16 08:40:37;;;;;;;;;;;;;;;8.96;75.08;100664.75;5017140;28;19925;-70
2020/12/16 08:43:19;;;;;;;;;;;;;;;9.05;75.06;100666.25;5014073;28;19925;-70
2020/12/16 08:45:46;;;;;;;;;;;;;;;9.26;74.22;100668.97;5040879;28;19932;-70
2020/12/16 08:48:12;;;;;;;;;;;;;;;9.31;74.01;100677.41;5019082;28;20256;-70
2020/12/16 08:50:39;;;;;;;;;;;;;;;9.38;73.45;100677.44;5030504;28;19936;-70
2020/12/16 08:53:05;;;;;;;;;;;;;;;9.39;73.37;100673.66;5030780;28;19936;-70
2020/12/16 08:55:33;;;;;;;;;;;;;;;9.47;72.55;100675.41;5029403;28;19925;-70
2020/12/16 08:58:00;;;;;;;;;;;;;;;9.43;73.04;100677.69;5029810;28;19928;-70
2020/12/16 09:00:26;;;;;;;;;;;;;;;9.34;73.26;100678.88;5029734;28;19925;-70
2020/12/16 09:03:19;;;;;;;;;;;;;;;9.48;72.04;100672.50;5031423;28;19956;-70
2020/12/16 09:05:45;;;;;;;;;;;;;;;9.54;72.19;100673.59;5041594;28;20184;-70
2020/12/16 09:08:15;;;;;;;;;;;;;;;9.52;71.59;100675.66;5029387;28;19936;-70
2020/12/16 09:10:45;;;;;;;;;;;;;;;9.62;71.36;100678.88;4997956;28;20312;-70
2020/12/16 09:13:13;;;;;;;;;;;;;;;9.82;71.42;100668.97;5031362;28;19925;-70
2020/12/16 09:15:42;;;;;;;;;;;;;;;10.02;70.68;100669.94;5016625;28;19951;-70
2020/12/16 09:18:09;;;;;;;;;;;;;;;10.40;69.29;100666.75;5033061;28;19979;-70
2020/12/16 09:20:35;;;;;;;;;;;;;;;10.86;68.03;100660.59;5016568;28;19925;-70
2020/12/16 09:23:01;;;;;;;;;;;;;;;12.24;63.57;100659.66;5033433;28;19925;-70
2020/12/16 09:25:27;;;;;;;;;;;;;;;14.78;55.37;100646.91;5032828;28;19925;-71
2020/12/16 09:27:54;;;;;;;;;;;;;;;15.92;50.64;100653.91;5032582;28;20420;-71
2020/12/16 09:30:25;;;;;;;;;;;;;;;17.65;45.89;100649.00;5014079;28;20403;-71
2020/12/16 09:32:51;;;;;;;;;;;;;;;17.71;45.10;100646.03;5033553;28;20017;-71
2020/12/16 09:35:17;;;;;;;;;;;;;;;18.54;42.50;100638.63;5033319;28;19925;-71
2020/12/16 09:37:43;;;;;;;;;;;;;;;19.02;41.25;100635.03;5015922;28;20405;-71
2020/12/16 09:40:11;;;;;;;;;;;;;;;19.40;40.24;100639.50;5032802;28;19925;-71
2020/12/16 09:42:37;;;;;;;;;;;;;;;19.05;40.78;100637.28;5033733;28;19931;-71
2020/12/16 09:45:15;;;;;;;;;;;;;;;19.13;40.62;100644.22;5018958;28;19999;-71
2020/12/16 09:47:42;;;;;;;;;;;;;;;18.89;41.38;100638.22;5032616;28;20391;-71
2020/12/16 09:50:08;;;;;;;;;;;;;;;17.68;43.90;100648.47;5032785;28;19929;-71
2020/12/16 09:52:35;;;;;;;;;;;;;;;19.04;41.25;100632.00;5032738;28;19925;-71
2020/12/16 09:55:15;;;;;;;;;;;;;;;19.40;40.13;100636.72;5016088;28;19931;-71
2020/12/16 09:57:42;;;;;;;;;;;;;;;19.53;39.98;100635.50;5032279;28;20028;-71
2020/12/16 10:00:08;;;;;;;;;;;;;;;20.24;38.17;100629.56;5033718;28;20482;-71
2020/12/16 10:02:37;;;;;;;;;;;;;;;20.02;38.59;100627.81;5032207;28;19925;-71
2020/12/16 10:05:04;;;;;;;;;;;;;;;20.27;38.00;100634.56;5067166;23;20173;-75
2020/12/16 10:07:31;;;;;;;;;;;;;;;20.55;37.52;100627.78;5054974;28;20023;-75
2020/12/16 10:09:57;;;;;;;;;;;;;;;21.20;36.00;100618.75;5071694;28;19974;-75
2020/12/16 10:12:23;;;;;;;;;;;;;;;21.46;35.68;100618.81;5071748;28;19931;-74
2020/12/16 10:14:50;;;;;;;;;;;;;;;21.26;36.31;100616.84;5034996;28;20374;-75
2020/12/16 10:17:19;;;;;;;;;;;;;;;20.88;37.04;100609.84;5035313;28;19975;-74
2020/12/16 10:19:45;;;;;;;;;;;;;;;20.78;37.13;100612.63;5055312;28;19925;-74
2020/12/16 10:22:12;;;;;;;;;;;;;;;21.13;37.04;100612.66;5055214;28;19930;-73
2020/12/16 10:24:38;;;;;;;;;;;;;;;21.32;36.21;100602.72;5054378;28;19924;-74
2020/12/16 10:27:04;;;;;;;;;;;;;;;20.45;37.97;100609.19;5073499;28;20352;-74
2020/12/16 10:29:33;;;;;;;;;;;;;;;21.27;36.64;100601.88;5042954;28;19928;-74
2020/12/16 10:31:59;;;;;;;;;;;;;;;21.64;35.84;100616.28;5083742;28;19925;-75
2020/12/16 10:34:26;;;;;;;;;;;;;;;20.89;37.57;100611.50;5046229;28;19998;-75
2020/12/16 10:36:53;;;;;;;;;;;;;;;20.94;37.19;100608.75;5054989;28;19924;-74
2020/12/16 10:39:20;;;;;;;;;;;;;;;20.57;38.49;100622.78;5054317;28;20424;-75
2020/12/16 10:41:50;;;;;;;;;;;;;;;19.60;40.56;100618.69;5054800;28;19980;-73
2020/12/16 10:44:16;;;;;;;;;;;;;;;19.79;40.43;100617.13;5055110;28;19928;-75
2020/12/16 10:46:46;;;;;;;;;;;;;;;20.35;39.49;100614.66;5037843;28;20295;-73
2020/12/16 10:49:12;;;;;;;;;;;;;;;19.79;40.25;100613.53;5038192;28;19931;-74
2020/12/16 10:51:38;;;;;;;;;;;;;;;19.47;41.01;100619.91;5071149;28;20305;-73
2020/12/16 10:54:04;;;;;;;;;;;;;;;20.22;39.29;100626.22;5070881;28;20019;-74
2020/12/16 10:56:30;;;;;;;;;;;;;;;19.63;40.59;100618.97;5071144;28;19931;-74
2020/12/16 10:58:57;;;;;;;;;;;;;;;20.21;39.34;100619.84;5054602;28;19930;-74
2020/12/16 11:01:23;;;;;;;;;;;;;;;19.94;39.88;100611.69;5038238;28;19924;-74
2020/12/16 11:03:49;;;;;;;;;;;;;;;20.42;38.56;100620.81;5038185;28;19931;-74
2020/12/16 11:06:16;;;;;;;;;;;;;;;19.98;39.82;100609.22;5070896;28;19930;-74
2020/12/16 11:08:43;;;;;;;;;;;;;;;20.43;39.12;100611.41;5070922;28;19924;-75
2020/12/16 11:11:09;;;;;;;;;;;;;;;20.37;38.87;100618.88;5055380;28;20397;-74
2020/12/16 11:13:35;;;;;;;;;;;;;;;19.69;40.36;100625.38;5055257;28;19971;-75
2020/12/16 11:16:02;;;;;;;;;;;;;;;19.30;41.66;100630.31;5072111;28;19950;-74
2020/12/16 11:18:28;;;;;;;;;;;;;;;20.29;39.35;100627.66;5070924;28;19929;-75
2020/12/16 11:20:54;;;;;;;;;;;;;;;21.08;38.13;100619.03;5054418;28;19963;-77
2020/12/16 11:23:21;;;;;;;;;;;;;;;21.81;36.12;100621.53;5087320;28;19960;-74
2020/12/16 11:25:47;;;;;;;;;;;;;;;22.55;34.34;100615.16;5070437;28;19928;-75
2020/12/16 11:28:13;;;;;;;;;;;;;;;21.90;34.91;100608.72;5071197;28;19948;-74
2020/12/16 11:30:40;;;;;;;;;;;;;;;21.81;35.67;100615.97;5070569;28;20398;-73
2020/12/16 11:33:07;;;;;;;;;;;;;;;21.20;36.49;100620.69;5070243;28;19955;-75
2020/12/16 11:35:33;;;;;;;;;;;;;;;21.61;36.23;100618.78;5070009;28;19928;-73
2020/12/16 11:38:00;;;;;;;;;;;;;;;21.95;35.38;100607.88;5053225;28;20408;-74
2020/12/16 11:40:26;;;;;;;;;;;;;;;21.50;36.18;100614.34;5069593;28;20406;-76
2020/12/16 11:42:53;;;;;;;;;;;;;;;22.10;35.04;100610.66;5070158;28;19931;-74
2020/12/16 11:45:19;;;;;;;;;;;;;;;22.70;33.94;100608.69;5070258;28;19963;-74
2020/12/16 11:47:45;;;;;;;;;;;;;;;22.19;34.25;100602.53;5069789;28;20166;-74
2020/12/16 11:50:11;;;;;;;;;;;;;;;20.59;38.25;100606.75;5070099;28;20346;-73
2020/12/16 11:52:38;;;;;;;;;;;;;;;20.85;36.90;100605.69;5069866;28;20390;-74
2020/12/16 11:55:04;;;;;;;;;;;;;;;21.64;35.90;100612.66;5077027;28;19959;-74
2020/12/16 11:57:31;;;;;;;;;;;;;;;21.39;35.79;100603.25;5069744;28;19936;-75
2020/12/16 11:59:58;;;;;;;;;;;;;;;21.56;35.73;100613.22;5053447;28;19935;-76
2020/12/16 12:02:24;;;;;;;;;;;;;;;21.62;36.19;100612.09;5053510;28;19971;-75
2020/12/16 12:04:50;;;;;;;;;;;;;;;22.38;34.41;100609.16;5069546;28;19975;-74
2020/12/16 12:07:18;;;;;;;;;;;;;;;22.57;34.02;100603.75;5069688;28;20015;-75
2020/12/16 12:09:44;;;;;;;;;;;;;;;22.55;33.99;100609.59;5086283;28;19925;-74
2020/12/16 12:12:10;;;;;;;;;;;;;;;21.89;35.33;100604.28;5071547;28;20342;-74
2020/12/16 12:14:37;;;;;;;;;;;;;;;22.20;34.92;100604.22;5086625;28;19932;-74
2020/12/16 12:17:03;;;;;;;;;;;;;;;22.45;34.28;100606.06;5070648;28;19963;-75
2020/12/16 12:19:31;;;;;;;;;;;;;;;21.47;36.25;100609.38;5070753;28;19924;-74
2020/12/16 12:21:58;;;;;;;;;;;;;;;21.14;37.17;100608.75;5053404;28;19932;-75
2020/12/16 12:24:25;;;;;;;;;;;;;;;19.99;39.36;100611.72;5034943;28;19955;-75
2020/12/16 12:26:51;;;;;;;;;;;;;;;19.47;40.45;100616.31;5017203;28;19978;-74
2020/12/16 12:29:17;;;;;;;;;;;;;;;20.29;39.02;100607.44;5063247;28;20367;-74
2020/12/16 12:31:44;;;;;;;;;;;;;;;19.53;40.51;100615.31;5043801;28;19994;-74
2020/12/16 12:34:11;;;;;;;;;;;;;;;19.38;40.89;100619.59;5079576;28;19932;-74
2020/12/16 12:36:37;;;;;;;;;;;;;;;19.58;40.25;100615.34;5053941;28;19955;-75
2020/12/16 12:39:04;;;;;;;;;;;;;;;17.47;45.24;100632.69;5069753;28;19924;-74
2020/12/16 12:41:30;;;;;;;;;;;;;;;17.13;46.02;100626.31;5069678;28;19932;-75
2020/12/16 12:43:56;;;;;;;;;;;;;;;19.05;42.09;100617.09;5070148;28;19924;-74
2020/12/16 12:46:22;;;;;;;;;;;;;;;19.13;41.08;100616.59;5053309;28;19964;-75
2020/12/16 12:48:49;;;;;;;;;;;;;;;19.37;40.48;100620.69;5072994;28;20027;-75
2020/12/16 12:51:15;;;;;;;;;;;;;;;20.20;38.63;100606.28;5057042;28;19928;-74
2020/12/16 12:53:55;;;;;;;;;;;;;;;19.16;41.06;100613.31;5058313;28;20001;-74